LKMB weather

Mladá Boleslav Airport
Mladá Boleslav, Central Bohemian Region, Czech Republic

Public forecast

Using degrees Celsius for public forecast. Weather courtesy of forecast.io.

Closest aviation weather report (METAR) to Mladá Boleslav Airport

Closest report is Kbely Air Base, 21.5 nm (39.8 km) SW. Retrieved 2019/12/14 04:00 UTC (41 minutes ago):

LKKB 140400Z 22016KT 9999 BKN026 OVC050 05/01 Q0990 NOSIG

Closest aviation forecast (TAF) to Mladá Boleslav Airport

Closest forecast is Kbely Air Base, 21.5 nm (39.8 km) SW. Retrieved 2019-12-14 00:00 UTC (5 hours ago):

TAF LKKB 132300Z 1400/1500 20011KT 9999 BKN035 TEMPO 1400/1407 22015KT TEMPO 1408/1413 7000 SHRA BKN015 BECMG 1412/1414 26012KT TEMPO 1412/1418 26020KT